createdAt,value
2018-06-21T00:00:24.664Z,59.35
2018-06-21T00:02:54.143Z,59.83
2018-06-21T00:05:23.588Z,60.18
2018-06-21T00:07:52.996Z,59.96
2018-06-21T00:10:22.373Z,60.36
2018-06-21T00:12:51.973Z,60.29
2018-06-21T00:15:21.594Z,60.63
2018-06-21T00:17:50.932Z,60.88
2018-06-21T00:20:20.661Z,61.08
2018-06-21T00:22:50.144Z,61.33
2018-06-21T00:25:19.732Z,61.57
2018-06-21T00:27:49.105Z,61.99
2018-06-21T00:30:18.950Z,61.71
2018-06-21T00:32:49.811Z,61.92
2018-06-21T00:35:19.201Z,62.06
2018-06-21T00:37:48.583Z,62.07
2018-06-21T00:40:18.787Z,62.35
2018-06-21T00:42:48.739Z,62.15
2018-06-21T00:45:18.125Z,62.35
2018-06-21T00:47:47.555Z,61.92
2018-06-21T00:50:16.975Z,62.31
2018-06-21T00:52:46.961Z,62.42
2018-06-21T00:55:26.219Z,62.56
2018-06-21T00:57:56.344Z,62.32
2018-06-21T01:00:25.734Z,63.01
2018-06-21T01:02:55.210Z,62.58
2018-06-21T01:05:24.643Z,62.77
2018-06-21T01:07:54.468Z,62.55
2018-06-21T01:10:23.967Z,62.47
2018-06-21T01:12:53.609Z,63.35
2018-06-21T01:15:23.562Z,64.22
2018-06-21T01:17:52.928Z,64.42
2018-06-21T01:20:22.381Z,64.70
2018-06-21T01:22:52.291Z,64.54
2018-06-21T01:25:21.674Z,64.17
2018-06-21T01:27:51.705Z,64.27
2018-06-21T01:30:21.051Z,63.92
2018-06-21T01:32:50.404Z,64.34
2018-06-21T01:35:19.993Z,64.84
2018-06-21T01:37:50.047Z,65.54
2018-06-21T01:40:19.551Z,65.38
2018-06-21T01:42:48.913Z,65.65
2018-06-21T01:45:18.377Z,66.07
2018-06-21T01:47:47.755Z,65.97
2018-06-21T01:50:17.112Z,66.08
2018-06-21T01:52:47.165Z,65.51
2018-06-21T01:55:16.540Z,65.69
2018-06-21T01:57:45.954Z,65.58
2018-06-21T02:00:15.322Z,65.36
2018-06-21T02:02:44.726Z,64.85
2018-06-21T02:05:15.064Z,65.05
2018-06-21T02:07:44.450Z,64.67
2018-06-21T02:10:15.057Z,64.79
2018-06-21T02:12:44.453Z,64.44
2018-06-21T02:15:17.196Z,63.74
2018-06-21T02:17:46.552Z,63.88
2018-06-21T02:20:15.932Z,64.36
2018-06-21T02:22:45.307Z,63.63
2018-06-21T02:25:14.823Z,64.33
2018-06-21T02:27:44.678Z,64.59
2018-06-21T02:30:16.972Z,65.43
2018-06-21T02:32:46.413Z,65.86
2018-06-21T02:35:15.838Z,66.16
2018-06-21T02:37:45.930Z,66.17
2018-06-21T02:40:15.339Z,66.14
2018-06-21T02:42:45.475Z,66.61
2018-06-21T02:45:15.643Z,66.90
2018-06-21T02:47:45.514Z,67.19
2018-06-21T02:50:16.530Z,67.03
2018-06-21T02:52:46.259Z,67.29
2018-06-21T02:55:16.605Z,67.70
2018-06-21T02:57:46.758Z,67.37
2018-06-21T03:00:16.216Z,67.11
2018-06-21T03:02:46.369Z,67.63
2018-06-21T03:05:15.820Z,66.88
2018-06-21T03:07:45.360Z,66.59
2018-06-21T03:10:14.877Z,66.35
2018-06-21T03:12:44.303Z,66.90
2018-06-21T03:15:13.720Z,67.10
2018-06-21T03:17:43.138Z,67.42
2018-06-21T03:20:12.605Z,67.10
2018-06-21T03:22:45.366Z,67.26
2018-06-21T03:25:14.938Z,67.22
2018-06-21T03:27:44.365Z,67.00
2018-06-21T03:30:13.721Z,67.25
2018-06-21T03:32:43.065Z,67.18
2018-06-21T03:35:12.475Z,67.54
2018-06-21T03:37:41.819Z,67.80
2018-06-21T03:40:11.187Z,67.73
2018-06-21T03:42:40.573Z,67.60
2018-06-21T03:45:09.948Z,67.88
2018-06-21T03:47:39.325Z,67.85
2018-06-21T03:50:08.776Z,67.75
2018-06-21T03:52:38.225Z,67.79
2018-06-21T03:55:09.972Z,67.53
2018-06-21T03:57:39.931Z,67.37
2018-06-21T04:00:09.352Z,68.34
2018-06-21T04:02:39.210Z,67.76
2018-06-21T04:05:09.459Z,67.53
2018-06-21T04:07:38.840Z,66.90
2018-06-21T04:10:08.305Z,66.83
2018-06-21T04:12:37.684Z,66.55
2018-06-21T04:15:08.457Z,66.74
2018-06-21T04:17:37.872Z,65.99
2018-06-21T04:20:09.827Z,65.83
2018-06-21T04:22:39.243Z,65.91
2018-06-21T04:25:08.620Z,65.68
2018-06-21T04:27:38.186Z,64.81
2018-06-21T04:30:09.456Z,64.63
2018-06-21T04:32:39.540Z,64.38
2018-06-21T04:35:10.021Z,64.43
2018-06-21T04:37:39.371Z,64.37
2018-06-21T04:40:11.421Z,63.60
2018-06-21T04:42:40.861Z,63.23
2018-06-21T04:45:11.728Z,63.34
2018-06-21T04:47:41.141Z,63.21
2018-06-21T04:50:10.514Z,62.76
2018-06-21T04:52:39.902Z,62.72
2018-06-21T04:55:09.544Z,62.50
2018-06-21T04:57:38.927Z,62.16
2018-06-21T05:00:10.508Z,61.72
2018-06-21T05:02:40.399Z,61.91
2018-06-21T05:05:09.746Z,60.69
2018-06-21T05:07:39.095Z,60.63
2018-06-21T05:10:09.296Z,60.47
2018-06-21T05:12:41.744Z,60.18
2018-06-21T05:15:11.218Z,58.90
2018-06-21T05:17:40.584Z,58.80
2018-06-21T05:20:10.806Z,58.51
2018-06-21T05:22:40.942Z,58.44
2018-06-21T05:25:10.401Z,58.03
2018-06-21T05:27:40.448Z,57.78
2018-06-21T05:30:11.715Z,57.55
2018-06-21T05:32:41.280Z,57.89
2018-06-21T05:35:10.924Z,57.52
2018-06-21T05:37:40.306Z,56.99
2018-06-21T05:40:20.394Z,57.27
2018-06-21T05:42:49.835Z,56.55
2018-06-21T05:45:19.284Z,56.25
2018-06-21T05:47:48.644Z,55.92
2018-06-21T05:50:18.140Z,55.76
2018-06-21T05:52:47.663Z,55.67
2018-06-21T05:55:17.142Z,55.84
2018-06-21T05:57:46.678Z,54.94
2018-06-21T06:00:16.791Z,55.10
2018-06-21T06:02:46.985Z,54.68
2018-06-21T06:05:16.423Z,54.24
2018-06-21T06:07:45.863Z,54.71
2018-06-21T06:10:15.410Z,53.91
2018-06-21T06:12:45.374Z,54.39
2018-06-21T06:15:14.776Z,53.80
2018-06-21T06:17:44.222Z,52.75
2018-06-21T06:20:15.840Z,52.81
2018-06-21T06:22:45.318Z,52.71
2018-06-21T06:25:14.706Z,52.47
2018-06-21T06:27:44.341Z,51.61
2018-06-21T06:30:13.812Z,51.74
2018-06-21T06:32:43.196Z,51.18
2018-06-21T06:35:12.543Z,52.13
2018-06-21T06:37:42.921Z,51.30
2018-06-21T06:40:12.265Z,51.55
2018-06-21T06:42:42.300Z,51.11
2018-06-21T06:45:11.684Z,51.04
2018-06-21T06:47:41.216Z,50.82
2018-06-21T06:50:11.224Z,50.26
2018-06-21T06:52:40.592Z,50.24
2018-06-21T06:55:10.033Z,49.92
2018-06-21T06:57:39.392Z,49.26
2018-06-21T07:00:10.480Z,49.30
2018-06-21T07:02:41.806Z,49.22
2018-06-21T07:05:14.824Z,48.99
2018-06-21T07:07:44.253Z,48.37
2018-06-21T07:10:14.987Z,47.91
2018-06-21T07:12:45.054Z,47.13
2018-06-21T07:15:20.493Z,47.09
2018-06-21T07:17:50.466Z,47.06
2018-06-21T07:20:20.306Z,45.75
2018-06-21T07:22:49.937Z,45.13
2018-06-21T07:25:21.417Z,45.69
2018-06-21T07:27:51.876Z,45.11
2018-06-21T07:30:21.271Z,45.70
2018-06-21T07:32:50.640Z,46.21
2018-06-21T07:35:20.058Z,45.23
2018-06-21T07:37:49.483Z,45.08
2018-06-21T07:40:19.108Z,45.00
2018-06-21T07:42:49.105Z,44.91
2018-06-21T07:45:18.528Z,44.00
2018-06-21T07:47:47.904Z,43.27
2018-06-21T07:50:17.357Z,43.73
2018-06-21T07:52:46.721Z,43.77
2018-06-21T07:55:16.105Z,44.47
2018-06-21T07:57:45.487Z,43.76
2018-06-21T08:00:14.887Z,44.39
2018-06-21T08:02:44.396Z,43.32
2018-06-21T08:05:13.833Z,42.77
2018-06-21T08:07:43.329Z,43.26
2018-06-21T08:10:12.767Z,42.29
2018-06-21T08:12:42.167Z,41.83
2018-06-21T08:15:11.579Z,41.69
2018-06-21T08:17:41.045Z,42.05
2018-06-21T08:20:10.753Z,42.47
2018-06-21T08:22:40.792Z,40.96
2018-06-21T08:25:10.176Z,41.12
2018-06-21T08:27:39.533Z,41.37
2018-06-21T08:30:09.064Z,41.13
2018-06-21T08:32:38.518Z,40.50
2018-06-21T08:35:08.151Z,40.34
2018-06-21T08:37:39.896Z,40.78
2018-06-21T08:40:09.470Z,40.31
2018-06-21T08:42:38.842Z,40.54
2018-06-21T08:45:08.229Z,40.02
2018-06-21T08:47:37.677Z,40.89
2018-06-21T08:50:07.306Z,40.80
2018-06-21T08:52:36.805Z,40.63
2018-06-21T08:55:06.400Z,39.88
2018-06-21T08:57:35.875Z,39.53
2018-06-21T09:00:05.780Z,40.02
2018-06-21T09:02:35.385Z,39.82
2018-06-21T09:05:05.395Z,40.16
2018-06-21T09:07:34.936Z,39.67
2018-06-21T09:10:04.713Z,39.83
2018-06-21T09:12:36.626Z,39.23
2018-06-21T09:15:07.752Z,39.27
2018-06-21T09:17:37.472Z,39.18
2018-06-21T09:20:07.252Z,38.79
2018-06-21T09:22:36.738Z,39.01
2018-06-21T09:25:06.371Z,37.64
2018-06-21T09:27:35.778Z,38.55
2018-06-21T09:30:05.654Z,37.86
2018-06-21T09:32:35.020Z,38.30
2018-06-21T09:35:05.202Z,37.43
2018-06-21T09:37:39.762Z,37.24
2018-06-21T09:40:14.479Z,36.88
2018-06-21T09:42:49.184Z,37.58
2018-06-21T09:45:23.787Z,37.27
2018-06-21T09:47:58.501Z,37.21
2018-06-21T09:50:28.780Z,34.91
2018-06-21T09:52:58.137Z,36.17
2018-06-21T09:55:27.564Z,36.48
2018-06-21T09:57:56.972Z,36.65
2018-06-21T10:01:03.148Z,36.56
2018-06-21T10:03:33.383Z,37.06
2018-06-21T10:06:02.713Z,37.47
2018-06-21T10:08:32.063Z,37.40
2018-06-21T10:11:01.623Z,37.71
2018-06-21T10:13:31.085Z,37.30
2018-06-21T10:16:00.464Z,36.87
2018-06-21T10:18:29.836Z,37.08
2018-06-21T10:20:59.241Z,37.08
2018-06-21T10:23:28.632Z,37.65
2018-06-21T10:25:58.193Z,38.25
2018-06-21T10:28:27.596Z,38.60
2018-06-21T10:30:56.964Z,38.48
2018-06-21T10:33:26.853Z,38.16
2018-06-21T10:35:56.229Z,38.91
2018-06-21T10:38:25.623Z,38.61
2018-06-21T10:40:55.011Z,37.32
2018-06-21T10:43:24.429Z,36.48
2018-06-21T10:45:53.829Z,36.44
2018-06-21T10:48:23.264Z,35.42
2018-06-21T10:50:52.630Z,35.84
2018-06-21T10:53:21.979Z,35.57
2018-06-21T10:55:51.547Z,35.62
2018-06-21T10:58:20.982Z,35.71
2018-06-21T11:00:50.355Z,35.63
2018-06-21T11:03:19.773Z,36.34
2018-06-21T11:05:49.329Z,35.90
2018-06-21T11:08:18.706Z,35.98
2018-06-21T11:10:48.083Z,36.51
2018-06-21T11:13:17.594Z,36.07
2018-06-21T11:15:47.068Z,35.19
2018-06-21T11:18:16.434Z,35.56
2018-06-21T11:20:45.793Z,36.04
2018-06-21T11:23:15.165Z,36.24
2018-06-21T11:25:44.520Z,37.08
2018-06-21T11:28:13.867Z,36.45
2018-06-21T11:30:43.563Z,36.51
2018-06-21T11:33:12.925Z,37.00
2018-06-21T11:35:42.095Z,36.45
2018-06-21T11:38:11.506Z,36.08
2018-06-21T11:40:41.138Z,36.43
2018-06-21T11:43:10.475Z,36.41
2018-06-21T11:45:40.712Z,36.00
2018-06-21T11:48:10.093Z,35.99
2018-06-21T11:50:39.545Z,35.98
2018-06-21T11:53:08.881Z,35.81
2018-06-21T11:55:38.297Z,35.89
2018-06-21T11:58:08.389Z,34.77
2018-06-21T12:00:37.770Z,35.82
2018-06-21T12:03:07.181Z,34.54
2018-06-21T12:05:36.575Z,33.32
2018-06-21T12:08:05.927Z,33.73
2018-06-21T12:10:35.326Z,33.07
2018-06-21T12:13:04.701Z,32.24
2018-06-21T12:15:34.070Z,32.18
2018-06-21T12:18:03.452Z,32.24
2018-06-21T12:20:32.834Z,31.46
2018-06-21T12:23:02.767Z,31.21
2018-06-21T12:25:32.145Z,31.29
2018-06-21T12:28:01.502Z,31.54
2018-06-21T12:30:30.867Z,31.15
2018-06-21T12:33:00.267Z,31.69
2018-06-21T12:35:29.635Z,31.37
2018-06-21T12:37:59.043Z,30.85
2018-06-21T12:40:28.589Z,31.49
2018-06-21T12:42:57.965Z,32.39
2018-06-21T12:45:27.410Z,31.77
2018-06-21T12:47:56.811Z,31.71
2018-06-21T12:50:26.153Z,31.24
2018-06-21T12:52:55.521Z,31.06
2018-06-21T12:55:24.924Z,31.09
2018-06-21T12:57:54.271Z,30.65
2018-06-21T13:00:23.673Z,31.03
2018-06-21T13:02:53.017Z,30.61
2018-06-21T13:05:22.378Z,30.09
2018-06-21T13:07:51.920Z,30.22
2018-06-21T13:10:32.319Z,29.29
2018-06-21T13:13:16.376Z,28.63
2018-06-21T13:15:45.788Z,28.40
2018-06-21T13:18:15.214Z,28.71
2018-06-21T13:20:44.580Z,28.95
2018-06-21T13:23:13.972Z,28.85
2018-06-21T13:25:43.353Z,30.27
2018-06-21T13:28:12.752Z,29.44
2018-06-21T13:30:42.128Z,29.86
2018-06-21T13:33:11.487Z,29.65
2018-06-21T13:35:40.840Z,29.92
2018-06-21T13:38:10.261Z,29.31
2018-06-21T13:40:39.675Z,28.87
2018-06-21T13:43:09.044Z,27.52
2018-06-21T13:45:38.422Z,27.83
2018-06-21T13:48:07.793Z,27.69
2018-06-21T13:50:37.166Z,26.95
2018-06-21T13:53:06.877Z,25.67
2018-06-21T13:55:36.488Z,26.39
2018-06-21T13:58:05.945Z,27.91
2018-06-21T14:00:35.354Z,29.45
2018-06-21T14:03:04.900Z,28.68
2018-06-21T14:05:34.216Z,27.72
2018-06-21T14:08:03.774Z,28.28
2018-06-21T14:10:33.177Z,27.30
2018-06-21T14:13:02.799Z,24.71
2018-06-21T14:15:32.284Z,24.42
2018-06-21T14:18:01.702Z,24.92
2018-06-21T14:20:31.318Z,26.43
2018-06-21T14:23:00.834Z,25.20
2018-06-21T14:25:30.189Z,25.32
2018-06-21T14:27:59.556Z,26.66
2018-06-21T14:30:29.267Z,26.87
2018-06-21T14:32:59.985Z,25.36
2018-06-21T14:35:29.342Z,22.48
2018-06-21T14:37:58.847Z,23.12
2018-06-21T14:40:28.260Z,24.71
2018-06-21T14:42:57.717Z,24.50
2018-06-21T14:45:28.643Z,24.34
2018-06-21T14:47:58.045Z,23.28
2018-06-21T14:50:27.596Z,23.63
2018-06-21T14:52:57.159Z,23.30
2018-06-21T14:55:26.488Z,24.59
2018-06-21T14:57:55.831Z,25.14
2018-06-21T15:00:25.306Z,25.59
2018-06-21T15:02:54.696Z,26.25
2018-06-21T15:05:24.120Z,25.96
2018-06-21T15:07:53.840Z,25.70
2018-06-21T15:10:23.168Z,26.21
2018-06-21T15:12:52.543Z,25.43
2018-06-21T15:15:22.029Z,25.83
2018-06-21T15:17:54.380Z,26.70
2018-06-21T15:20:23.734Z,26.17
2018-06-21T15:22:53.193Z,26.54
2018-06-21T15:25:22.564Z,26.94
2018-06-21T15:27:51.936Z,26.82
2018-06-21T15:30:21.336Z,26.56
2018-06-21T15:32:50.712Z,27.06
2018-06-21T15:35:20.408Z,27.10
2018-06-21T15:37:49.839Z,26.72
2018-06-21T15:40:19.237Z,27.68
2018-06-21T15:42:48.614Z,26.98
2018-06-21T15:45:18.010Z,26.96
2018-06-21T15:47:47.540Z,26.35
2018-06-21T15:50:16.902Z,26.48
2018-06-21T15:52:46.795Z,26.37
2018-06-21T15:55:16.191Z,26.22
2018-06-21T15:57:45.561Z,25.77
2018-06-21T16:00:14.900Z,26.40
2018-06-21T16:02:44.465Z,25.91
2018-06-21T16:05:13.844Z,26.28
2018-06-21T16:07:43.217Z,26.19
2018-06-21T16:10:12.575Z,26.69
2018-06-21T16:12:41.971Z,26.40
2018-06-21T16:15:13.699Z,26.84
2018-06-21T16:17:43.168Z,27.13
2018-06-21T16:20:12.583Z,26.86
2018-06-21T16:22:41.976Z,27.04
2018-06-21T16:25:43.024Z,26.52
2018-06-21T16:28:12.420Z,27.15
2018-06-21T16:30:41.982Z,26.93
2018-06-21T16:33:11.331Z,26.44
2018-06-21T16:35:40.706Z,26.55
2018-06-21T16:38:10.055Z,26.29
2018-06-21T16:40:39.497Z,27.54
2018-06-21T16:43:08.861Z,27.11
2018-06-21T16:45:38.371Z,26.66
2018-06-21T16:48:07.818Z,26.53
2018-06-21T16:50:37.345Z,26.34
2018-06-21T16:53:06.787Z,27.17
2018-06-21T16:55:36.148Z,26.51
2018-06-21T16:58:05.593Z,26.82
2018-06-21T17:00:36.316Z,27.35
2018-06-21T17:03:06.957Z,26.99
2018-06-21T17:05:36.505Z,27.18
2018-06-21T17:08:06.131Z,27.61
2018-06-21T17:10:35.467Z,28.36
2018-06-21T17:13:04.860Z,28.05
2018-06-21T17:15:34.348Z,28.53
2018-06-21T17:18:03.729Z,28.61
2018-06-21T17:20:33.093Z,28.44
2018-06-21T17:23:02.477Z,28.84
2018-06-21T17:25:31.783Z,28.97
2018-06-21T17:28:01.158Z,28.92
2018-06-21T17:30:30.516Z,28.51
2018-06-21T17:33:00.257Z,28.53
2018-06-21T17:35:29.690Z,29.11
2018-06-21T17:37:59.132Z,28.64
2018-06-21T17:40:28.464Z,29.53
2018-06-21T17:42:57.807Z,28.87
2018-06-21T17:45:27.903Z,29.79
2018-06-21T17:47:57.446Z,29.98
2018-06-21T17:50:26.805Z,29.80
2018-06-21T17:52:56.202Z,28.91
2018-06-21T17:55:25.628Z,29.64
2018-06-21T17:57:55.048Z,30.36
2018-06-21T18:00:24.598Z,30.91
2018-06-21T18:02:54.635Z,30.75
2018-06-21T18:05:23.999Z,31.04
2018-06-21T18:07:53.425Z,31.24
2018-06-21T18:10:23.039Z,31.93
2018-06-21T18:12:52.465Z,31.34
2018-06-21T18:15:21.864Z,32.31
2018-06-21T18:17:51.207Z,31.92
2018-06-21T18:20:20.982Z,32.64
2018-06-21T18:22:51.214Z,32.44
2018-06-21T18:25:20.625Z,32.65
2018-06-21T18:27:51.038Z,32.78
2018-06-21T18:30:21.374Z,33.64
2018-06-21T18:32:50.782Z,33.48
2018-06-21T18:35:20.252Z,33.77
2018-06-21T18:37:49.900Z,34.12
2018-06-21T18:40:19.260Z,34.06
2018-06-21T18:42:49.053Z,34.38
2018-06-21T18:45:18.564Z,34.63
2018-06-21T18:47:48.020Z,34.74
2018-06-21T18:50:17.460Z,35.52
2018-06-21T18:52:46.959Z,36.18
2018-06-21T18:55:16.713Z,36.10
2018-06-21T18:57:46.113Z,36.49
2018-06-21T19:00:15.572Z,36.67
2018-06-21T19:02:44.991Z,36.69
2018-06-21T19:05:14.366Z,37.15
2018-06-21T19:07:43.744Z,38.02
2018-06-21T19:10:25.188Z,38.09
2018-06-21T19:12:54.786Z,38.81
2018-06-21T19:15:24.182Z,39.23
2018-06-21T19:17:53.572Z,39.14
2018-06-21T19:20:22.963Z,39.35
2018-06-21T19:22:52.444Z,39.66
2018-06-21T19:25:21.849Z,39.95
2018-06-21T19:27:51.236Z,40.77
2018-06-21T19:30:20.665Z,40.91
2018-06-21T19:32:50.109Z,41.40
2018-06-21T19:35:19.485Z,40.95
2018-06-21T19:37:48.904Z,41.14
2018-06-21T19:40:18.396Z,39.75
2018-06-21T19:42:47.781Z,36.82
2018-06-21T19:45:17.226Z,37.17
2018-06-21T19:47:48.276Z,39.15
2018-06-21T19:50:17.703Z,42.56
2018-06-21T19:52:47.056Z,45.65
2018-06-21T19:55:16.447Z,48.57
2018-06-21T19:57:45.803Z,51.77
2018-06-21T20:00:15.330Z,52.98
2018-06-21T20:02:50.232Z,54.07
2018-06-21T20:05:19.638Z,54.63
2018-06-21T20:07:49.047Z,55.20
2018-06-21T20:10:18.393Z,60.07
2018-06-21T20:12:47.828Z,61.99
2018-06-21T20:15:17.374Z,65.03
2018-06-21T20:17:46.801Z,64.82
2018-06-21T20:20:33.708Z,66.28
2018-06-21T20:23:03.064Z,72.13
2018-06-21T20:25:32.431Z,73.00
2018-06-21T20:28:01.849Z,74.34
2018-06-21T20:30:32.545Z,71.39
2018-06-21T20:33:02.069Z,71.67
2018-06-21T20:35:31.599Z,74.68
2018-06-21T20:38:00.953Z,74.59
2018-06-21T20:40:30.362Z,72.43
2018-06-21T20:42:59.764Z,68.40
2018-06-21T20:45:29.125Z,68.17
2018-06-21T20:47:58.525Z,66.86
2018-06-21T20:50:27.945Z,68.36
2018-06-21T20:52:57.587Z,69.33
2018-06-21T20:55:26.952Z,66.28
2018-06-21T20:57:56.563Z,64.74
2018-06-21T21:00:25.935Z,64.70
2018-06-21T21:02:55.293Z,63.97
2018-06-21T21:05:25.080Z,61.87
2018-06-21T21:07:54.513Z,62.64
2018-06-21T21:10:23.986Z,61.73
2018-06-21T21:12:53.413Z,60.77
2018-06-21T21:15:22.839Z,58.67
2018-06-21T21:17:52.571Z,59.58
2018-06-21T21:20:21.927Z,58.71
2018-06-21T21:22:51.374Z,59.40
2018-06-21T21:25:20.742Z,60.51
2018-06-21T21:27:50.263Z,60.66
2018-06-21T21:30:19.596Z,59.75
2018-06-21T21:32:49.000Z,60.37
2018-06-21T21:35:18.363Z,59.36
2018-06-21T21:37:47.781Z,60.14
2018-06-21T21:40:17.194Z,59.87
2018-06-21T21:42:46.558Z,60.58
2018-06-21T21:45:15.876Z,57.98
2018-06-21T21:47:45.260Z,58.21
2018-06-21T21:50:14.695Z,57.35
2018-06-21T21:52:44.256Z,58.27
2018-06-21T21:55:15.303Z,58.13
2018-06-21T21:57:44.682Z,57.63
2018-06-21T22:00:57.073Z,57.00
2018-06-21T22:03:26.629Z,56.51
2018-06-21T22:05:56.028Z,55.39
2018-06-21T22:08:25.416Z,54.39
2018-06-21T22:10:54.818Z,55.11
2018-06-21T22:13:24.257Z,55.02
2018-06-21T22:15:53.979Z,54.61
2018-06-21T22:18:23.595Z,53.80
2018-06-21T22:20:52.947Z,53.82
2018-06-21T22:23:22.404Z,54.41
2018-06-21T22:25:52.011Z,53.98
2018-06-21T22:28:21.420Z,53.18
2018-06-21T22:30:50.768Z,53.60
2018-06-21T22:33:20.131Z,53.87
2018-06-21T22:35:49.485Z,54.23
2018-06-21T22:38:18.862Z,53.54
2018-06-21T22:40:48.219Z,53.75
2018-06-21T22:43:17.560Z,54.04
2018-06-21T22:45:46.960Z,54.06
2018-06-21T22:48:16.304Z,53.96
2018-06-21T22:50:45.769Z,54.48
2018-06-21T22:53:15.131Z,53.86
2018-06-21T22:55:44.676Z,53.20
2018-06-21T22:58:14.215Z,53.11
2018-06-21T23:00:44.004Z,53.38
2018-06-21T23:03:13.398Z,53.21
2018-06-21T23:05:42.782Z,52.99
2018-06-21T23:08:12.232Z,53.17
2018-06-21T23:10:41.754Z,53.34
2018-06-21T23:13:11.686Z,52.96
2018-06-21T23:15:41.061Z,53.51
2018-06-21T23:18:10.428Z,53.25
2018-06-21T23:20:39.810Z,53.26
2018-06-21T23:23:09.379Z,52.53
2018-06-21T23:25:38.833Z,52.31
2018-06-21T23:28:08.165Z,52.77
2018-06-21T23:30:37.600Z,52.04
2018-06-21T23:33:06.986Z,52.68
2018-06-21T23:35:36.317Z,52.64
2018-06-21T23:38:05.648Z,52.96
2018-06-21T23:40:35.108Z,52.92
2018-06-21T23:43:04.511Z,52.74
2018-06-21T23:45:33.964Z,52.55
2018-06-21T23:48:03.354Z,52.21
2018-06-21T23:50:32.732Z,53.08
2018-06-21T23:53:02.153Z,52.77
2018-06-21T23:55:31.777Z,52.25
2018-06-21T23:58:01.114Z,52.43
